createdAt,value
2019-05-02T00:01:27.592Z,7.50
2019-05-02T00:04:30.874Z,7.60
2019-05-02T00:07:34.345Z,7.60
2019-05-02T00:10:37.733Z,7.60
2019-05-02T00:13:41.233Z,7.70
2019-05-02T00:16:45.090Z,7.70
2019-05-02T00:19:51.122Z,7.70
2019-05-02T00:22:55.537Z,7.70
2019-05-02T00:25:58.854Z,7.80
2019-05-02T00:29:02.161Z,7.70
2019-05-02T00:32:05.572Z,7.80
2019-05-02T00:35:08.867Z,7.70
2019-05-02T00:38:12.137Z,7.80
2019-05-02T00:41:15.440Z,7.90
2019-05-02T00:44:20.285Z,7.90
2019-05-02T00:47:42.326Z,7.80
2019-05-02T00:50:45.275Z,7.80
2019-05-02T00:53:49.553Z,7.80
2019-05-02T00:56:52.821Z,7.80
2019-05-02T00:59:56.156Z,7.80
2019-05-02T01:03:01.042Z,7.80
2019-05-02T01:06:04.344Z,7.80
2019-05-02T01:09:11.018Z,7.80
2019-05-02T01:12:25.168Z,7.80
2019-05-02T01:15:18.041Z,7.80
2019-05-02T01:18:23.416Z,7.80
2019-05-02T01:21:26.565Z,7.80
2019-05-02T01:24:34.110Z,7.80
2019-05-02T01:27:57.089Z,7.80
2019-05-02T01:31:18.259Z,7.90
2019-05-02T01:34:43.053Z,7.90
2019-05-02T01:38:14.356Z,7.90
2019-05-02T01:41:17.726Z,7.90
2019-05-02T01:44:20.905Z,7.90
2019-05-02T01:47:24.268Z,7.80
2019-05-02T01:50:28.918Z,7.80
2019-05-02T01:53:34.649Z,7.80
2019-05-02T01:56:38.701Z,7.80
2019-05-02T01:59:42.948Z,7.80
2019-05-02T02:02:45.883Z,7.90
2019-05-02T02:05:49.221Z,7.90
2019-05-02T02:08:52.474Z,7.70
2019-05-02T02:11:55.665Z,7.70
2019-05-02T02:14:58.917Z,7.70
2019-05-02T02:18:02.363Z,7.70
2019-05-02T02:21:15.240Z,7.70
2019-05-02T02:24:26.852Z,7.60
2019-05-02T02:27:30.107Z,7.50
2019-05-02T02:30:33.429Z,7.40
2019-05-02T02:33:40.863Z,7.40
2019-05-02T02:36:42.761Z,7.40
2019-05-02T02:39:48.525Z,7.30
2019-05-02T02:42:50.870Z,7.30
2019-05-02T02:46:38.063Z,7.30
2019-05-02T02:49:36.537Z,7.30
2019-05-02T02:52:44.464Z,7.30
2019-05-02T02:55:44.754Z,7.30
2019-05-02T02:58:48.246Z,7.30
2019-05-02T03:01:51.305Z,7.20
2019-05-02T03:04:54.611Z,7.20
2019-05-02T03:07:59.421Z,7.20
2019-05-02T03:11:03.041Z,7.20
2019-05-02T03:14:12.286Z,7.20
2019-05-02T03:17:20.514Z,7.20
2019-05-02T03:20:20.808Z,7.30
2019-05-02T03:23:24.199Z,7.30
2019-05-02T03:26:27.816Z,7.30
2019-05-02T03:29:41.290Z,7.30
2019-05-02T03:32:36.629Z,7.30
2019-05-02T03:35:44.165Z,7.30
2019-05-02T03:38:45.029Z,7.40
2019-05-02T03:41:48.096Z,7.40
2019-05-02T03:44:56.210Z,7.50
2019-05-02T03:47:56.438Z,7.50
2019-05-02T03:50:59.605Z,7.50
2019-05-02T03:54:07.264Z,7.50
2019-05-02T03:57:07.761Z,7.50
2019-05-02T04:00:13.828Z,7.60
2019-05-02T04:03:17.915Z,7.70
2019-05-02T04:06:23.601Z,7.80
2019-05-02T04:09:37.942Z,7.70
2019-05-02T04:12:37.057Z,7.70
2019-05-02T06:52:13.666Z,9.10
2019-05-02T07:51:09.915Z,9.80
2019-05-02T07:59:23.308Z,9.80
2019-05-02T08:02:25.001Z,10.00
2019-05-02T08:05:29.585Z,9.90
2019-05-02T08:08:36.265Z,10.00
2019-05-02T08:11:40.161Z,9.80
2019-05-02T08:14:44.144Z,9.80
2019-05-02T08:17:53.166Z,9.80
2019-05-02T08:20:56.021Z,9.90
2019-05-02T08:24:02.216Z,9.90
2019-05-02T08:27:38.582Z,10.10
2019-05-02T08:30:44.456Z,10.20
2019-05-02T08:33:47.656Z,10.20
2019-05-02T08:36:50.796Z,10.20
2019-05-02T08:39:53.876Z,10.40
2019-05-02T08:42:57.137Z,10.40
2019-05-02T08:46:00.476Z,10.40
2019-05-02T08:49:03.941Z,10.50
2019-05-02T08:52:07.377Z,10.60
2019-05-02T08:55:11.088Z,10.60
2019-05-02T08:58:15.867Z,10.60
2019-05-02T09:01:19.342Z,10.60
2019-05-02T09:04:24.091Z,10.60
2019-05-02T09:07:31.702Z,10.60
2019-05-02T09:10:32.586Z,10.90
2019-05-02T09:13:37.321Z,10.90
2019-05-02T09:16:42.632Z,10.90
2019-05-02T09:19:59.150Z,10.90
2019-05-02T09:22:52.215Z,10.90
2019-05-02T09:25:55.318Z,10.90
2019-05-02T09:29:01.666Z,11.00
2019-05-02T09:32:04.482Z,11.10
2019-05-02T09:35:08.961Z,11.00
2019-05-02T09:38:12.923Z,10.90
2019-05-02T09:41:19.431Z,10.90
2019-05-02T09:44:22.354Z,10.80
2019-05-02T09:47:27.334Z,10.90
2019-05-02T09:50:32.150Z,10.80
2019-05-02T09:53:36.030Z,10.90
2019-05-02T09:56:39.254Z,10.90
2019-05-02T09:59:50.428Z,11.00
2019-05-02T10:02:47.557Z,11.10
2019-05-02T10:05:52.343Z,11.20
2019-05-02T10:08:55.799Z,11.20
2019-05-02T10:11:58.927Z,11.30
2019-05-02T10:15:04.042Z,11.30
2019-05-02T10:18:11.217Z,11.40
2019-05-02T10:21:16.936Z,11.50
2019-05-02T10:24:17.697Z,11.40
2019-05-02T10:27:21.668Z,11.50
2019-05-02T10:30:26.917Z,11.30
2019-05-02T10:33:33.639Z,11.40
2019-05-02T10:36:35.312Z,11.50
2019-05-02T10:39:39.529Z,11.40
2019-05-02T10:42:42.606Z,11.60
2019-05-02T10:45:54.865Z,11.90
2019-05-02T10:49:01.862Z,12.10
2019-05-02T10:52:58.329Z,12.10
2019-05-02T10:56:02.693Z,12.00
2019-05-02T10:59:05.967Z,11.70
2019-05-02T11:02:25.632Z,11.40
2019-05-02T11:05:31.257Z,11.70
2019-05-02T11:08:36.740Z,11.70
2019-05-02T11:11:42.364Z,11.60
2019-05-02T11:14:53.751Z,11.80
2019-05-02T11:17:57.080Z,11.70
2019-05-02T11:21:06.836Z,11.80
2019-05-02T11:24:05.219Z,12.10
2019-05-02T11:27:08.473Z,12.30
2019-05-02T11:30:16.768Z,12.40
2019-05-02T11:33:17.770Z,12.40
2019-05-02T11:36:22.285Z,12.30
2019-05-02T11:39:33.528Z,12.80
2019-05-02T11:42:32.334Z,13.30
2019-05-02T11:45:35.665Z,13.30
2019-05-02T11:48:38.777Z,13.10
2019-05-02T11:51:42.271Z,12.90
2019-05-02T11:54:48.441Z,13.50
2019-05-02T11:57:52.236Z,13.80
2019-05-02T12:00:55.125Z,13.50
2019-05-02T12:03:58.317Z,13.10
2019-05-02T12:07:04.958Z,13.40
2019-05-02T12:10:07.273Z,13.50
2019-05-02T12:13:11.930Z,13.60
2019-05-02T12:16:16.196Z,13.50
2019-05-02T12:19:19.349Z,13.40
2019-05-02T12:22:22.664Z,13.00
2019-05-02T12:25:26.045Z,13.00
2019-05-02T12:28:29.558Z,13.00
2019-05-02T12:31:33.118Z,12.90
2019-05-02T12:34:36.453Z,13.10
2019-05-02T12:37:39.372Z,13.10
2019-05-02T12:40:42.526Z,13.40
2019-05-02T12:43:45.814Z,13.20
2019-05-02T12:46:48.985Z,13.10
2019-05-02T12:49:52.425Z,13.60
2019-05-02T12:52:55.821Z,13.40
2019-05-02T12:55:58.995Z,13.30
2019-05-02T12:59:02.584Z,13.40
2019-05-02T13:02:08.920Z,13.40
2019-05-02T13:05:13.177Z,14.00
2019-05-02T13:08:16.598Z,14.00
2019-05-02T13:11:44.497Z,13.60
2019-05-02T13:14:46.553Z,13.40
2019-05-02T13:17:52.009Z,13.20
2019-05-02T13:20:56.166Z,12.80
2019-05-02T13:24:16.722Z,12.60
2019-05-02T13:27:20.081Z,12.60
2019-05-02T13:30:42.856Z,12.80
2019-05-02T13:33:45.236Z,12.70
2019-05-02T13:36:49.026Z,12.80
2019-05-02T13:40:12.063Z,13.10
2019-05-02T13:43:16.814Z,13.30
2019-05-02T13:46:22.274Z,13.00
2019-05-02T13:49:25.533Z,12.60
2019-05-02T13:52:29.071Z,12.70
2019-05-02T13:55:37.346Z,12.70
2019-05-02T13:58:42.371Z,12.90
2019-05-02T14:01:47.725Z,12.90
2019-05-02T14:04:52.141Z,14.10
2019-05-02T14:08:12.986Z,13.80
2019-05-02T14:11:34.402Z,13.80
2019-05-02T14:14:37.762Z,13.30
2019-05-02T14:17:42.318Z,13.30
2019-05-02T14:20:46.686Z,13.40
2019-05-02T14:23:51.790Z,13.80
2019-05-02T14:26:55.521Z,14.20
2019-05-02T14:29:58.818Z,13.80
2019-05-02T14:33:05.953Z,13.70
2019-05-02T14:36:09.205Z,13.30
2019-05-02T14:39:12.546Z,13.10
2019-05-02T14:42:24.390Z,12.90
2019-05-02T14:45:30.794Z,12.80
2019-05-02T14:48:28.986Z,12.80
2019-05-02T14:51:36.468Z,13.10
2019-05-02T14:54:43.877Z,13.20
2019-05-02T14:57:43.644Z,13.50
2019-05-02T15:00:48.860Z,13.60
2019-05-02T15:03:52.919Z,13.70
2019-05-02T15:06:56.229Z,13.40
2019-05-02T15:10:02.681Z,13.20
2019-05-02T15:13:06.996Z,13.50
2019-05-02T15:16:17.439Z,13.50
2019-05-02T15:19:15.255Z,14.10
2019-05-02T15:22:18.665Z,14.70
2019-05-02T15:25:22.035Z,14.00
2019-05-02T15:28:25.346Z,13.60
2019-05-02T15:31:33.743Z,13.20
2019-05-02T15:34:54.391Z,13.10
2019-05-02T15:38:02.649Z,13.00
2019-05-02T15:41:05.060Z,13.00
2019-05-02T15:44:08.033Z,12.90
2019-05-02T15:47:12.441Z,12.90
2019-05-02T15:50:23.832Z,12.80
2019-05-02T15:53:26.173Z,12.80
2019-05-02T15:56:29.549Z,12.80
2019-05-02T15:59:42.311Z,12.70
2019-05-02T16:02:42.679Z,12.70
2019-05-02T16:05:46.099Z,12.70
2019-05-02T16:08:49.258Z,12.70
2019-05-02T16:11:55.747Z,12.80
2019-05-02T16:14:57.662Z,13.40
2019-05-02T16:18:03.990Z,14.00
2019-05-02T16:21:11.925Z,14.70
2019-05-02T16:24:22.887Z,15.30
2019-05-02T16:28:02.667Z,15.20
2019-05-02T16:31:05.483Z,15.00
2019-05-02T16:34:08.594Z,14.60
2019-05-02T16:37:16.639Z,14.10
2019-05-02T16:40:22.088Z,13.80
2019-05-02T16:43:24.798Z,13.50
2019-05-02T16:46:28.372Z,13.30
2019-05-02T16:49:32.192Z,13.20
2019-05-02T16:52:38.051Z,13.10
2019-05-02T16:55:43.451Z,13.10
2019-05-02T16:58:47.261Z,13.00
2019-05-02T17:01:54.172Z,13.10
2019-05-02T17:05:00.129Z,13.00
2019-05-02T17:08:20.187Z,12.90
2019-05-02T17:11:34.514Z,12.90
2019-05-02T17:14:33.130Z,12.80
2019-05-02T17:17:36.386Z,12.80
2019-05-02T17:20:39.421Z,12.60
2019-05-02T17:23:46.470Z,12.50
2019-05-02T17:26:48.067Z,12.40
2019-05-02T17:29:54.275Z,12.20
2019-05-02T17:32:56.403Z,12.00
2019-05-02T17:35:59.686Z,11.70
2019-05-02T17:39:08.083Z,11.40
2019-05-02T17:42:12.473Z,11.20
2019-05-02T17:45:16.252Z,11.10
2019-05-02T17:48:23.943Z,11.00
2019-05-02T17:51:49.331Z,10.90
2019-05-02T17:54:57.244Z,10.80
2019-05-02T17:57:58.122Z,10.70
2019-05-02T18:01:02.984Z,10.60
2019-05-02T18:04:12.510Z,10.60
2019-05-02T18:07:11.702Z,10.50
2019-05-02T18:10:21.965Z,10.50
2019-05-02T18:13:20.018Z,10.50
2019-05-02T18:16:23.111Z,10.50
2019-05-02T18:19:26.217Z,10.50
2019-05-02T18:22:29.407Z,10.50
2019-05-02T18:25:32.515Z,10.50
2019-05-02T18:28:46.188Z,10.50
2019-05-02T18:31:47.128Z,10.60
2019-05-02T18:34:45.595Z,10.70
2019-05-02T18:37:48.810Z,10.70
2019-05-02T18:40:53.005Z,10.70
2019-05-02T18:43:57.028Z,10.80
2019-05-02T18:47:02.301Z,10.80
2019-05-02T18:50:15.163Z,10.90
2019-05-02T18:53:22.921Z,10.90
2019-05-02T18:56:23.557Z,10.90
2019-05-02T18:59:27.751Z,10.80
2019-05-02T19:06:03.202Z,10.70
2019-05-02T19:09:09.585Z,10.60
2019-05-02T19:12:21.513Z,10.50
2019-05-02T19:15:39.650Z,10.50
2019-05-02T19:18:42.496Z,10.50
2019-05-02T19:21:45.601Z,10.40
2019-05-02T19:24:48.576Z,10.40
2019-05-02T19:27:59.338Z,10.30
2019-05-02T19:31:06.888Z,10.30
2019-05-02T19:34:11.990Z,10.40
2019-05-02T19:37:16.413Z,10.40
2019-05-02T19:40:26.958Z,10.40
2019-05-02T19:43:28.587Z,10.30
2019-05-02T19:46:38.610Z,10.30
2019-05-02T19:49:37.198Z,10.30
2019-05-02T19:52:42.918Z,10.20
2019-05-02T19:55:46.241Z,10.10
2019-05-02T19:58:49.778Z,10.10
2019-05-02T20:01:56.867Z,10.10
2019-05-02T20:04:58.994Z,10.10
2019-05-02T20:08:02.594Z,10.00
2019-05-02T20:11:06.013Z,9.90
2019-05-02T20:14:09.776Z,9.90
2019-05-02T20:17:14.919Z,9.90
2019-05-02T20:20:48.631Z,9.80
2019-05-02T20:23:52.228Z,9.90
2019-05-02T20:26:56.184Z,9.80
2019-05-02T20:29:59.382Z,9.80
2019-05-02T20:33:05.042Z,9.80
2019-05-02T20:36:07.005Z,9.80
2019-05-02T20:39:11.773Z,9.80
2019-05-02T20:42:14.669Z,9.80
2019-05-02T20:45:17.609Z,9.90
2019-05-02T20:48:22.642Z,9.90
2019-05-02T20:51:25.283Z,9.90
2019-05-02T20:54:28.213Z,9.90
2019-05-02T20:57:31.833Z,9.90
2019-05-02T21:00:35.494Z,9.90
2019-05-02T21:03:38.377Z,9.90
2019-05-02T21:07:06.665Z,9.90
2019-05-02T21:10:22.643Z,9.90
2019-05-02T21:13:25.474Z,9.80
2019-05-02T21:16:28.442Z,9.80
2019-05-02T21:19:50.882Z,9.80
2019-05-02T21:22:53.678Z,9.70
2019-05-02T21:25:56.481Z,9.60
2019-05-02T21:28:59.331Z,9.50
2019-05-02T21:32:02.218Z,9.50
2019-05-02T21:35:05.422Z,9.40
2019-05-02T21:38:08.293Z,9.30
2019-05-02T21:41:13.014Z,9.30
2019-05-02T21:44:16.790Z,9.20
2019-05-02T21:47:22.311Z,9.20
2019-05-02T21:50:45.233Z,9.10
2019-05-02T21:54:02.958Z,9.10
2019-05-02T21:57:15.053Z,9.10
2019-05-02T22:00:42.054Z,9.00
2019-05-02T22:03:45.278Z,9.00
2019-05-02T22:06:48.611Z,8.90
2019-05-02T22:09:52.391Z,8.80
2019-05-02T22:12:55.513Z,8.80
2019-05-02T22:15:58.349Z,8.80
2019-05-02T22:19:02.892Z,8.70
2019-05-02T22:22:06.118Z,8.80
2019-05-02T22:25:11.505Z,8.70
2019-05-02T22:28:14.635Z,8.60
2019-05-02T22:31:17.869Z,8.60
2019-05-02T22:34:22.039Z,8.60
2019-05-02T22:37:25.837Z,8.50
2019-05-02T22:40:29.081Z,8.50
2019-05-02T22:43:32.751Z,8.50
2019-05-02T22:46:43.629Z,8.50
2019-05-02T22:49:46.930Z,8.40
2019-05-02T22:52:52.090Z,8.30
2019-05-02T22:55:55.101Z,8.40
2019-05-02T22:58:58.248Z,8.50
2019-05-02T23:02:02.148Z,8.50
2019-05-02T23:05:05.882Z,8.50
2019-05-02T23:08:08.974Z,8.40
2019-05-02T23:11:12.968Z,8.40
2019-05-02T23:14:16.280Z,8.30
2019-05-02T23:17:19.366Z,8.30
2019-05-02T23:20:24.431Z,8.30
2019-05-02T23:23:27.507Z,8.30
2019-05-02T23:26:58.734Z,8.20
2019-05-02T23:30:02.956Z,8.30
2019-05-02T23:33:06.273Z,8.30
2019-05-02T23:36:09.165Z,8.20
2019-05-02T23:39:12.440Z,8.30
2019-05-02T23:42:15.957Z,8.30
2019-05-02T23:45:19.056Z,8.20
2019-05-02T23:48:22.143Z,8.30
2019-05-02T23:51:25.110Z,8.30
2019-05-02T23:54:28.000Z,8.20
2019-05-02T23:57:32.454Z,8.20
